sensor_id;sensor_type;location;lat;lon;timestamp;temperature;humidity
2327;DHT22;1174;51.588;7.328;2022-07-21T00:00:25;22.90;99.90
2327;DHT22;1174;51.588;7.328;2022-07-21T00:02:53;22.80;99.90
2327;DHT22;1174;51.588;7.328;2022-07-21T00:05:23;22.60;99.90
2327;DHT22;1174;51.588;7.328;2022-07-21T00:07:51;22.40;99.90
2327;DHT22;1174;51.588;7.328;2022-07-21T00:10:19;22.00;99.90
2327;DHT22;1174;51.588;7.328;2022-07-21T00:12:46;21.90;99.90
2327;DHT22;1174;51.588;7.328;2022-07-21T00:15:16;21.80;99.90
2327;DHT22;1174;51.588;7.328;2022-07-21T00:17:47;21.80;99.90
2327;DHT22;1174;51.588;7.328;2022-07-21T00:20:16;21.80;99.90
2327;DHT22;1174;51.588;7.328;2022-07-21T00:22:43;22.10;99.90
2327;DHT22;1174;51.588;7.328;2022-07-21T00:25:13;22.00;99.90
2327;DHT22;1174;51.588;7.328;2022-07-21T00:27:40;22.10;99.90
2327;DHT22;1174;51.588;7.328;2022-07-21T00:30:09;21.80;99.90
2327;DHT22;1174;51.588;7.328;2022-07-21T00:32:37;21.90;99.90
2327;DHT22;1174;51.588;7.328;2022-07-21T00:35:06;21.90;99.90
2327;DHT22;1174;51.588;7.328;2022-07-21T00:37:33;21.90;99.90
2327;DHT22;1174;51.588;7.328;2022-07-21T00:40:01;21.70;99.90
2327;DHT22;1174;51.588;7.328;2022-07-21T00:42:29;21.50;99.90
2327;DHT22;1174;51.588;7.328;2022-07-21T00:44:57;21.50;99.90
2327;DHT22;1174;51.588;7.328;2022-07-21T00:47:26;21.50;99.90
2327;DHT22;1174;51.588;7.328;2022-07-21T00:49:56;21.60;99.90
2327;DHT22;1174;51.588;7.328;2022-07-21T00:52:23;21.60;99.90
2327;DHT22;1174;51.588;7.328;2022-07-21T00:54:51;21.60;99.90
2327;DHT22;1174;51.588;7.328;2022-07-21T00:57:18;21.40;99.90
2327;DHT22;1174;51.588;7.328;2022-07-21T00:59:45;21.40;99.90
2327;DHT22;1174;51.588;7.328;2022-07-21T01:02:13;21.50;99.90
2327;DHT22;1174;51.588;7.328;2022-07-21T01:04:40;21.40;99.90
2327;DHT22;1174;51.588;7.328;2022-07-21T01:07:08;21.40;99.90
2327;DHT22;1174;51.588;7.328;2022-07-21T01:09:36;21.40;99.90
2327;DHT22;1174;51.588;7.328;2022-07-21T01:12:03;21.50;99.90
2327;DHT22;1174;51.588;7.328;2022-07-21T01:14:31;21.50;99.90
2327;DHT22;1174;51.588;7.328;2022-07-21T01:16:58;21.50;99.90
2327;DHT22;1174;51.588;7.328;2022-07-21T01:19:28;21.40;99.90
2327;DHT22;1174;51.588;7.328;2022-07-21T01:21:57;21.40;99.90
2327;DHT22;1174;51.588;7.328;2022-07-21T01:24:24;21.40;99.90
2327;DHT22;1174;51.588;7.328;2022-07-21T01:26:52;21.60;99.90
2327;DHT22;1174;51.588;7.328;2022-07-21T01:29:20;21.50;99.90
2327;DHT22;1174;51.588;7.328;2022-07-21T01:31:48;21.40;99.90
2327;DHT22;1174;51.588;7.328;2022-07-21T01:34:15;21.40;99.90
2327;DHT22;1174;51.588;7.328;2022-07-21T01:36:44;21.60;99.90
2327;DHT22;1174;51.588;7.328;2022-07-21T01:39:13;21.70;99.90
2327;DHT22;1174;51.588;7.328;2022-07-21T01:41:57;21.70;99.90
2327;DHT22;1174;51.588;7.328;2022-07-21T01:44:24;21.70;99.90
2327;DHT22;1174;51.588;7.328;2022-07-21T01:46:51;21.80;99.90
2327;DHT22;1174;51.588;7.328;2022-07-21T01:49:21;21.70;99.90
2327;DHT22;1174;51.588;7.328;2022-07-21T01:51:48;21.70;99.90
2327;DHT22;1174;51.588;7.328;2022-07-21T01:54:18;21.80;99.90
2327;DHT22;1174;51.588;7.328;2022-07-21T01:56:45;21.50;99.90
2327;DHT22;1174;51.588;7.328;2022-07-21T01:59:12;21.60;99.90
2327;DHT22;1174;51.588;7.328;2022-07-21T02:01:39;21.70;99.90
2327;DHT22;1174;51.588;7.328;2022-07-21T02:04:09;21.70;99.90
2327;DHT22;1174;51.588;7.328;2022-07-21T02:06:36;21.50;99.90
2327;DHT22;1174;51.588;7.328;2022-07-21T02:09:03;21.50;99.90
2327;DHT22;1174;51.588;7.328;2022-07-21T02:11:34;21.30;99.90
2327;DHT22;1174;51.588;7.328;2022-07-21T02:14:01;21.30;99.90
2327;DHT22;1174;51.588;7.328;2022-07-21T02:16:28;21.20;99.90
2327;DHT22;1174;51.588;7.328;2022-07-21T02:18:56;21.10;99.90
2327;DHT22;1174;51.588;7.328;2022-07-21T02:21:23;21.10;99.90
2327;DHT22;1174;51.588;7.328;2022-07-21T02:23:50;21.00;99.90
2327;DHT22;1174;51.588;7.328;2022-07-21T02:26:17;21.00;99.90
2327;DHT22;1174;51.588;7.328;2022-07-21T02:28:46;21.00;99.90
2327;DHT22;1174;51.588;7.328;2022-07-21T02:31:13;20.90;99.90
2327;DHT22;1174;51.588;7.328;2022-07-21T02:33:40;20.90;99.90
2327;DHT22;1174;51.588;7.328;2022-07-21T02:36:08;20.90;99.90
2327;DHT22;1174;51.588;7.328;2022-07-21T02:38:35;20.90;99.90
2327;DHT22;1174;51.588;7.328;2022-07-21T02:41:02;20.80;99.90
2327;DHT22;1174;51.588;7.328;2022-07-21T02:43:29;20.70;99.90
2327;DHT22;1174;51.588;7.328;2022-07-21T02:45:57;20.60;99.90
2327;DHT22;1174;51.588;7.328;2022-07-21T02:48:24;20.50;99.90
2327;DHT22;1174;51.588;7.328;2022-07-21T02:50:51;20.40;99.90
2327;DHT22;1174;51.588;7.328;2022-07-21T02:53:19;20.50;99.90
2327;DHT22;1174;51.588;7.328;2022-07-21T02:55:49;20.40;99.90
2327;DHT22;1174;51.588;7.328;2022-07-21T02:58:19;20.40;99.90
2327;DHT22;1174;51.588;7.328;2022-07-21T03:00:49;20.40;99.90
2327;DHT22;1174;51.588;7.328;2022-07-21T03:03:18;20.30;99.90
2327;DHT22;1174;51.588;7.328;2022-07-21T03:05:46;20.50;99.90
2327;DHT22;1174;51.588;7.328;2022-07-21T03:08:13;20.50;99.90
2327;DHT22;1174;51.588;7.328;2022-07-21T03:10:40;20.40;99.90
2327;DHT22;1174;51.588;7.328;2022-07-21T03:13:08;20.40;99.90
2327;DHT22;1174;51.588;7.328;2022-07-21T03:15:35;20.50;99.90
2327;DHT22;1174;51.588;7.328;2022-07-21T03:18:02;20.60;99.90
2327;DHT22;1174;51.588;7.328;2022-07-21T03:20:32;20.60;99.90
2327;DHT22;1174;51.588;7.328;2022-07-21T03:23:00;20.50;99.90
2327;DHT22;1174;51.588;7.328;2022-07-21T03:25:28;20.40;99.90
2327;DHT22;1174;51.588;7.328;2022-07-21T03:27:55;20.40;99.90
2327;DHT22;1174;51.588;7.328;2022-07-21T03:30:23;20.30;99.90
2327;DHT22;1174;51.588;7.328;2022-07-21T03:32:50;20.20;99.90
2327;DHT22;1174;51.588;7.328;2022-07-21T03:35:18;20.10;99.90
2327;DHT22;1174;51.588;7.328;2022-07-21T03:37:49;20.20;99.90
2327;DHT22;1174;51.588;7.328;2022-07-21T03:40:18;20.20;99.90
2327;DHT22;1174;51.588;7.328;2022-07-21T03:42:48;20.20;99.90
2327;DHT22;1174;51.588;7.328;2022-07-21T03:45:15;20.20;99.90
2327;DHT22;1174;51.588;7.328;2022-07-21T03:47:44;20.20;99.90
2327;DHT22;1174;51.588;7.328;2022-07-21T03:50:11;20.20;99.90
2327;DHT22;1174;51.588;7.328;2022-07-21T03:52:38;20.10;99.90
2327;DHT22;1174;51.588;7.328;2022-07-21T03:55:07;20.10;99.90
2327;DHT22;1174;51.588;7.328;2022-07-21T03:57:36;20.20;99.90
2327;DHT22;1174;51.588;7.328;2022-07-21T04:00:06;20.20;99.90
2327;DHT22;1174;51.588;7.328;2022-07-21T04:02:33;20.10;99.90
2327;DHT22;1174;51.588;7.328;2022-07-21T04:05:00;20.20;99.90
2327;DHT22;1174;51.588;7.328;2022-07-21T04:07:29;20.20;99.90
2327;DHT22;1174;51.588;7.328;2022-07-21T04:09:56;20.20;99.90
2327;DHT22;1174;51.588;7.328;2022-07-21T04:12:26;20.40;99.90
2327;DHT22;1174;51.588;7.328;2022-07-21T04:14:53;20.50;99.90
2327;DHT22;1174;51.588;7.328;2022-07-21T04:17:21;20.40;99.90
2327;DHT22;1174;51.588;7.328;2022-07-21T04:19:48;20.50;99.90
2327;DHT22;1174;51.588;7.328;2022-07-21T04:22:15;20.40;99.90
2327;DHT22;1174;51.588;7.328;2022-07-21T04:24:42;20.40;99.90
2327;DHT22;1174;51.588;7.328;2022-07-21T04:27:09;20.40;99.90
2327;DHT22;1174;51.588;7.328;2022-07-21T04:29:37;20.40;99.90
2327;DHT22;1174;51.588;7.328;2022-07-21T04:32:04;20.60;99.90
2327;DHT22;1174;51.588;7.328;2022-07-21T04:34:31;20.70;99.90
2327;DHT22;1174;51.588;7.328;2022-07-21T04:36:58;20.70;99.90
2327;DHT22;1174;51.588;7.328;2022-07-21T04:39:25;20.70;99.90
2327;DHT22;1174;51.588;7.328;2022-07-21T04:41:53;20.70;99.90
2327;DHT22;1174;51.588;7.328;2022-07-21T04:44:20;20.70;99.90
2327;DHT22;1174;51.588;7.328;2022-07-21T04:46:49;20.50;99.90
2327;DHT22;1174;51.588;7.328;2022-07-21T04:49:16;20.50;99.90
2327;DHT22;1174;51.588;7.328;2022-07-21T04:51:43;20.60;99.90
2327;DHT22;1174;51.588;7.328;2022-07-21T04:54:10;20.70;99.90
2327;DHT22;1174;51.588;7.328;2022-07-21T04:56:39;20.70;99.90
2327;DHT22;1174;51.588;7.328;2022-07-21T04:59:06;20.70;99.90
2327;DHT22;1174;51.588;7.328;2022-07-21T05:01:33;20.80;99.90
2327;DHT22;1174;51.588;7.328;2022-07-21T05:04:02;20.80;99.90
2327;DHT22;1174;51.588;7.328;2022-07-21T05:06:29;20.60;99.90
2327;DHT22;1174;51.588;7.328;2022-07-21T05:08:55;20.90;99.90
2327;DHT22;1174;51.588;7.328;2022-07-21T05:11:22;21.10;99.90
2327;DHT22;1174;51.588;7.328;2022-07-21T05:13:49;21.20;99.90
2327;DHT22;1174;51.588;7.328;2022-07-21T05:16:16;21.50;99.90
2327;DHT22;1174;51.588;7.328;2022-07-21T05:18:43;21.80;99.90
2327;DHT22;1174;51.588;7.328;2022-07-21T05:21:12;22.00;99.90
2327;DHT22;1174;51.588;7.328;2022-07-21T05:23:39;22.00;99.90
2327;DHT22;1174;51.588;7.328;2022-07-21T05:26:06;22.00;99.90
2327;DHT22;1174;51.588;7.328;2022-07-21T05:28:32;21.90;99.90
2327;DHT22;1174;51.588;7.328;2022-07-21T05:30:59;21.90;99.90
2327;DHT22;1174;51.588;7.328;2022-07-21T05:33:26;22.20;99.90
2327;DHT22;1174;51.588;7.328;2022-07-21T05:35:53;22.40;99.90
2327;DHT22;1174;51.588;7.328;2022-07-21T05:38:21;22.20;99.90
2327;DHT22;1174;51.588;7.328;2022-07-21T05:40:48;22.20;99.90
2327;DHT22;1174;51.588;7.328;2022-07-21T05:43:15;22.10;99.90
2327;DHT22;1174;51.588;7.328;2022-07-21T05:45:42;22.00;99.90
2327;DHT22;1174;51.588;7.328;2022-07-21T05:48:09;21.80;99.90
2327;DHT22;1174;51.588;7.328;2022-07-21T05:50:36;21.80;99.90
2327;DHT22;1174;51.588;7.328;2022-07-21T05:53:03;21.50;99.90
2327;DHT22;1174;51.588;7.328;2022-07-21T05:55:31;21.30;99.90
2327;DHT22;1174;51.588;7.328;2022-07-21T05:57:58;21.20;99.90
2327;DHT22;1174;51.588;7.328;2022-07-21T06:00:24;21.20;99.90
2327;DHT22;1174;51.588;7.328;2022-07-21T06:02:51;21.30;99.90
2327;DHT22;1174;51.588;7.328;2022-07-21T06:05:18;21.20;99.90
2327;DHT22;1174;51.588;7.328;2022-07-21T06:07:45;21.30;99.90
2327;DHT22;1174;51.588;7.328;2022-07-21T06:10:14;21.40;99.90
2327;DHT22;1174;51.588;7.328;2022-07-21T06:12:43;21.40;99.90
2327;DHT22;1174;51.588;7.328;2022-07-21T06:15:10;21.50;99.90
2327;DHT22;1174;51.588;7.328;2022-07-21T06:17:41;21.70;99.90
2327;DHT22;1174;51.588;7.328;2022-07-21T06:20:10;21.70;99.90
2327;DHT22;1174;51.588;7.328;2022-07-21T06:22:37;21.70;99.90
2327;DHT22;1174;51.588;7.328;2022-07-21T06:25:05;21.50;99.90
2327;DHT22;1174;51.588;7.328;2022-07-21T06:27:32;21.50;99.90
2327;DHT22;1174;51.588;7.328;2022-07-21T06:30:01;21.60;99.90
2327;DHT22;1174;51.588;7.328;2022-07-21T06:32:28;21.60;99.90
2327;DHT22;1174;51.588;7.328;2022-07-21T06:34:54;21.60;99.90
2327;DHT22;1174;51.588;7.328;2022-07-21T06:37:21;21.60;99.90
2327;DHT22;1174;51.588;7.328;2022-07-21T06:39:48;21.60;99.90
2327;DHT22;1174;51.588;7.328;2022-07-21T06:42:15;21.40;99.90
2327;DHT22;1174;51.588;7.328;2022-07-21T06:44:42;21.20;99.90
2327;DHT22;1174;51.588;7.328;2022-07-21T06:47:10;21.40;99.90
2327;DHT22;1174;51.588;7.328;2022-07-21T06:49:37;21.60;99.90
2327;DHT22;1174;51.588;7.328;2022-07-21T06:52:04;21.60;99.90
2327;DHT22;1174;51.588;7.328;2022-07-21T06:54:31;21.40;99.90
2327;DHT22;1174;51.588;7.328;2022-07-21T06:56:58;21.40;99.90
2327;DHT22;1174;51.588;7.328;2022-07-21T06:59:24;21.30;99.90
2327;DHT22;1174;51.588;7.328;2022-07-21T07:01:51;21.50;99.90
2327;DHT22;1174;51.588;7.328;2022-07-21T07:04:45;21.50;99.90
2327;DHT22;1174;51.588;7.328;2022-07-21T07:07:12;21.70;99.90
2327;DHT22;1174;51.588;7.328;2022-07-21T07:09:39;21.90;99.90
2327;DHT22;1174;51.588;7.328;2022-07-21T07:12:07;21.90;99.90
2327;DHT22;1174;51.588;7.328;2022-07-21T07:14:35;22.00;99.90
2327;DHT22;1174;51.588;7.328;2022-07-21T07:17:03;22.20;99.90
2327;DHT22;1174;51.588;7.328;2022-07-21T07:19:30;22.20;99.90
2327;DHT22;1174;51.588;7.328;2022-07-21T07:21:59;22.20;99.90
2327;DHT22;1174;51.588;7.328;2022-07-21T07:24:25;22.10;99.90
2327;DHT22;1174;51.588;7.328;2022-07-21T07:26:52;22.30;99.90
2327;DHT22;1174;51.588;7.328;2022-07-21T07:29:19;22.50;99.90
2327;DHT22;1174;51.588;7.328;2022-07-21T07:31:46;22.80;99.90
2327;DHT22;1174;51.588;7.328;2022-07-21T07:34:13;23.20;99.90
2327;DHT22;1174;51.588;7.328;2022-07-21T07:36:40;23.30;99.90
2327;DHT22;1174;51.588;7.328;2022-07-21T07:39:08;23.10;99.90
2327;DHT22;1174;51.588;7.328;2022-07-21T07:41:35;23.00;99.90
2327;DHT22;1174;51.588;7.328;2022-07-21T07:44:02;22.80;99.90
2327;DHT22;1174;51.588;7.328;2022-07-21T07:46:29;22.70;99.90
2327;DHT22;1174;51.588;7.328;2022-07-21T07:48:55;22.60;99.90
2327;DHT22;1174;51.588;7.328;2022-07-21T07:51:22;22.60;99.90
2327;DHT22;1174;51.588;7.328;2022-07-21T07:53:49;22.70;99.90
2327;DHT22;1174;51.588;7.328;2022-07-21T07:56:18;22.80;99.90
2327;DHT22;1174;51.588;7.328;2022-07-21T07:58:45;22.90;99.90
2327;DHT22;1174;51.588;7.328;2022-07-21T08:01:11;23.00;99.90
2327;DHT22;1174;51.588;7.328;2022-07-21T08:03:39;23.10;99.90
2327;DHT22;1174;51.588;7.328;2022-07-21T08:06:06;22.80;99.90
2327;DHT22;1174;51.588;7.328;2022-07-21T08:08:33;22.80;99.90
2327;DHT22;1174;51.588;7.328;2022-07-21T08:11:00;23.20;99.90
2327;DHT22;1174;51.588;7.328;2022-07-21T08:13:28;23.40;99.90
2327;DHT22;1174;51.588;7.328;2022-07-21T08:15:55;23.80;99.90
2327;DHT22;1174;51.588;7.328;2022-07-21T08:18:22;23.70;99.90
2327;DHT22;1174;51.588;7.328;2022-07-21T08:20:51;23.70;99.90
2327;DHT22;1174;51.588;7.328;2022-07-21T08:23:18;23.90;99.90
2327;DHT22;1174;51.588;7.328;2022-07-21T08:25:45;23.80;99.90
2327;DHT22;1174;51.588;7.328;2022-07-21T08:28:14;23.70;99.90
2327;DHT22;1174;51.588;7.328;2022-07-21T08:30:42;24.20;99.90
2327;DHT22;1174;51.588;7.328;2022-07-21T08:33:09;24.90;99.90
2327;DHT22;1174;51.588;7.328;2022-07-21T08:35:36;25.80;99.90
2327;DHT22;1174;51.588;7.328;2022-07-21T08:38:07;26.60;99.90
2327;DHT22;1174;51.588;7.328;2022-07-21T08:40:37;27.20;99.90
2327;DHT22;1174;51.588;7.328;2022-07-21T08:43:05;27.10;99.90
2327;DHT22;1174;51.588;7.328;2022-07-21T08:45:37;26.40;99.90
2327;DHT22;1174;51.588;7.328;2022-07-21T08:48:08;25.90;99.90
2327;DHT22;1174;51.588;7.328;2022-07-21T08:50:39;25.70;99.90
2327;DHT22;1174;51.588;7.328;2022-07-21T08:53:06;25.40;99.90
2327;DHT22;1174;51.588;7.328;2022-07-21T08:55:37;25.30;99.90
2327;DHT22;1174;51.588;7.328;2022-07-21T08:58:08;25.40;99.90
2327;DHT22;1174;51.588;7.328;2022-07-21T09:00:36;25.20;99.90
2327;DHT22;1174;51.588;7.328;2022-07-21T09:03:14;25.00;99.90
2327;DHT22;1174;51.588;7.328;2022-07-21T09:05:41;24.90;99.90
2327;DHT22;1174;51.588;7.328;2022-07-21T09:08:09;24.60;99.90
2327;DHT22;1174;51.588;7.328;2022-07-21T09:10:36;24.70;99.90
2327;DHT22;1174;51.588;7.328;2022-07-21T09:13:05;24.70;99.90
2327;DHT22;1174;51.588;7.328;2022-07-21T09:15:34;24.30;99.90
2327;DHT22;1174;51.588;7.328;2022-07-21T09:18:09;24.30;99.90
2327;DHT22;1174;51.588;7.328;2022-07-21T09:20:39;24.90;99.90
2327;DHT22;1174;51.588;7.328;2022-07-21T09:23:14;25.10;99.90
2327;DHT22;1174;51.588;7.328;2022-07-21T09:25:43;25.20;99.90
2327;DHT22;1174;51.588;7.328;2022-07-21T09:28:13;25.50;99.90
2327;DHT22;1174;51.588;7.328;2022-07-21T09:30:55;25.50;99.90
2327;DHT22;1174;51.588;7.328;2022-07-21T09:33:25;25.50;99.90
2327;DHT22;1174;51.588;7.328;2022-07-21T09:36:00;25.30;99.90
2327;DHT22;1174;51.588;7.328;2022-07-21T09:38:28;25.30;99.90
2327;DHT22;1174;51.588;7.328;2022-07-21T09:41:04;25.20;99.90
2327;DHT22;1174;51.588;7.328;2022-07-21T09:43:34;24.90;99.90
2327;DHT22;1174;51.588;7.328;2022-07-21T09:46:09;24.90;99.90
2327;DHT22;1174;51.588;7.328;2022-07-21T09:48:38;25.20;99.90
2327;DHT22;1174;51.588;7.328;2022-07-21T09:51:37;25.20;99.90
2327;DHT22;1174;51.588;7.328;2022-07-21T09:54:08;25.30;99.90
2327;DHT22;1174;51.588;7.328;2022-07-21T09:56:36;25.50;99.90
2327;DHT22;1174;51.588;7.328;2022-07-21T09:59:06;25.90;99.90
2327;DHT22;1174;51.588;7.328;2022-07-21T10:01:33;26.30;99.90
2327;DHT22;1174;51.588;7.328;2022-07-21T10:04:01;26.90;99.90
2327;DHT22;1174;51.588;7.328;2022-07-21T10:06:31;27.30;99.90
2327;DHT22;1174;51.588;7.328;2022-07-21T10:09:00;27.50;99.90
2327;DHT22;1174;51.588;7.328;2022-07-21T10:11:28;27.70;99.90
2327;DHT22;1174;51.588;7.328;2022-07-21T10:13:55;27.90;99.90
2327;DHT22;1174;51.588;7.328;2022-07-21T10:16:23;27.50;99.90
2327;DHT22;1174;51.588;7.328;2022-07-21T10:18:57;27.40;99.90
2327;DHT22;1174;51.588;7.328;2022-07-21T10:21:33;27.30;99.90
2327;DHT22;1174;51.588;7.328;2022-07-21T10:24:03;27.00;99.90
2327;DHT22;1174;51.588;7.328;2022-07-21T10:26:30;26.80;99.90
2327;DHT22;1174;51.588;7.328;2022-07-21T10:28:57;26.70;99.90
2327;DHT22;1174;51.588;7.328;2022-07-21T10:31:25;26.60;99.90
2327;DHT22;1174;51.588;7.328;2022-07-21T10:34:02;26.30;99.90
2327;DHT22;1174;51.588;7.328;2022-07-21T10:36:40;26.40;99.90
2327;DHT22;1174;51.588;7.328;2022-07-21T10:39:25;26.20;99.90
2327;DHT22;1174;51.588;7.328;2022-07-21T10:41:54;26.20;99.90
2327;DHT22;1174;51.588;7.328;2022-07-21T10:44:45;26.20;99.90
2327;DHT22;1174;51.588;7.328;2022-07-21T10:47:14;26.20;99.90
2327;DHT22;1174;51.588;7.328;2022-07-21T10:49:50;26.20;99.90
2327;DHT22;1174;51.588;7.328;2022-07-21T10:55:37;25.90;99.90
2327;DHT22;1174;51.588;7.328;2022-07-21T10:58:25;25.70;99.90
2327;DHT22;1174;51.588;7.328;2022-07-21T11:00:53;25.70;99.90
2327;DHT22;1174;51.588;7.328;2022-07-21T11:03:25;25.90;99.90
2327;DHT22;1174;51.588;7.328;2022-07-21T11:06:14;25.60;99.90
2327;DHT22;1174;51.588;7.328;2022-07-21T11:08:42;25.40;99.90
2327;DHT22;1174;51.588;7.328;2022-07-21T11:11:16;25.40;99.90
2327;DHT22;1174;51.588;7.328;2022-07-21T11:14:08;25.50;99.90
2327;DHT22;1174;51.588;7.328;2022-07-21T11:17:05;25.10;99.90
2327;DHT22;1174;51.588;7.328;2022-07-21T11:19:37;24.90;99.90
2327;DHT22;1174;51.588;7.328;2022-07-21T11:22:06;24.80;99.90
2327;DHT22;1174;51.588;7.328;2022-07-21T11:24:35;24.80;99.90
2327;DHT22;1174;51.588;7.328;2022-07-21T11:27:06;24.30;99.90
2327;DHT22;1174;51.588;7.328;2022-07-21T11:29:36;23.80;99.90
2327;DHT22;1174;51.588;7.328;2022-07-21T11:32:04;23.40;99.90
2327;DHT22;1174;51.588;7.328;2022-07-21T11:34:45;23.30;99.90
2327;DHT22;1174;51.588;7.328;2022-07-21T11:37:13;23.40;99.90
2327;DHT22;1174;51.588;7.328;2022-07-21T11:39:40;23.50;99.90
2327;DHT22;1174;51.588;7.328;2022-07-21T11:42:10;23.40;99.90
2327;DHT22;1174;51.588;7.328;2022-07-21T11:44:39;23.50;99.90
2327;DHT22;1174;51.588;7.328;2022-07-21T11:47:09;23.50;99.90
2327;DHT22;1174;51.588;7.328;2022-07-21T11:49:36;23.50;99.90
2327;DHT22;1174;51.588;7.328;2022-07-21T11:52:06;23.50;99.90
2327;DHT22;1174;51.588;7.328;2022-07-21T11:54:35;23.60;99.90
2327;DHT22;1174;51.588;7.328;2022-07-21T11:57:03;23.60;99.90
2327;DHT22;1174;51.588;7.328;2022-07-21T11:59:32;23.60;99.90
2327;DHT22;1174;51.588;7.328;2022-07-21T12:02:02;23.40;99.90
2327;DHT22;1174;51.588;7.328;2022-07-21T12:04:33;23.20;99.90
2327;DHT22;1174;51.588;7.328;2022-07-21T12:07:01;22.80;99.90
2327;DHT22;1174;51.588;7.328;2022-07-21T12:09:28;22.50;99.90
2327;DHT22;1174;51.588;7.328;2022-07-21T12:11:55;22.40;99.90
2327;DHT22;1174;51.588;7.328;2022-07-21T12:14:46;22.50;99.90
2327;DHT22;1174;51.588;7.328;2022-07-21T12:17:14;22.70;99.90
2327;DHT22;1174;51.588;7.328;2022-07-21T12:19:42;22.70;99.90
2327;DHT22;1174;51.588;7.328;2022-07-21T12:22:09;22.50;99.90
2327;DHT22;1174;51.588;7.328;2022-07-21T12:24:50;22.40;99.90
2327;DHT22;1174;51.588;7.328;2022-07-21T12:27:19;22.50;99.90
2327;DHT22;1174;51.588;7.328;2022-07-21T12:29:50;22.50;99.90
2327;DHT22;1174;51.588;7.328;2022-07-21T12:32:38;22.50;99.90
2327;DHT22;1174;51.588;7.328;2022-07-21T12:35:23;22.50;99.90
2327;DHT22;1174;51.588;7.328;2022-07-21T12:38:00;22.40;99.90
2327;DHT22;1174;51.588;7.328;2022-07-21T12:40:28;22.40;99.90
2327;DHT22;1174;51.588;7.328;2022-07-21T12:43:12;22.40;99.90
2327;DHT22;1174;51.588;7.328;2022-07-21T12:45:52;22.20;99.90
2327;DHT22;1174;51.588;7.328;2022-07-21T12:48:21;22.10;99.90
2327;DHT22;1174;51.588;7.328;2022-07-21T12:51:03;22.30;99.90
2327;DHT22;1174;51.588;7.328;2022-07-21T12:53:32;22.10;99.90
2327;DHT22;1174;51.588;7.328;2022-07-21T12:56:01;22.00;99.90
2327;DHT22;1174;51.588;7.328;2022-07-21T12:58:29;22.00;99.90
2327;DHT22;1174;51.588;7.328;2022-07-21T13:00:58;22.10;99.90
2327;DHT22;1174;51.588;7.328;2022-07-21T13:03:30;22.20;99.90
2327;DHT22;1174;51.588;7.328;2022-07-21T13:06:00;22.00;99.90
2327;DHT22;1174;51.588;7.328;2022-07-21T13:08:27;21.90;99.90
2327;DHT22;1174;51.588;7.328;2022-07-21T13:10:54;22.00;99.90
2327;DHT22;1174;51.588;7.328;2022-07-21T13:13:22;22.00;99.90
2327;DHT22;1174;51.588;7.328;2022-07-21T13:15:49;22.00;99.90
2327;DHT22;1174;51.588;7.328;2022-07-21T13:18:17;22.20;99.90
2327;DHT22;1174;51.588;7.328;2022-07-21T13:20:44;22.20;99.90
2327;DHT22;1174;51.588;7.328;2022-07-21T13:23:11;22.10;99.90
2327;DHT22;1174;51.588;7.328;2022-07-21T13:25:38;22.10;99.90
2327;DHT22;1174;51.588;7.328;2022-07-21T13:28:05;21.90;99.90
2327;DHT22;1174;51.588;7.328;2022-07-21T13:30:32;21.70;99.90
2327;DHT22;1174;51.588;7.328;2022-07-21T13:32:59;21.60;99.90
2327;DHT22;1174;51.588;7.328;2022-07-21T13:35:27;21.60;99.90
2327;DHT22;1174;51.588;7.328;2022-07-21T13:37:55;21.60;99.90
2327;DHT22;1174;51.588;7.328;2022-07-21T13:40:23;21.50;99.90
2327;DHT22;1174;51.588;7.328;2022-07-21T13:42:50;21.70;99.90
2327;DHT22;1174;51.588;7.328;2022-07-21T13:45:16;21.90;99.90
2327;DHT22;1174;51.588;7.328;2022-07-21T13:47:43;21.90;99.90
2327;DHT22;1174;51.588;7.328;2022-07-21T13:50:11;21.80;99.90
2327;DHT22;1174;51.588;7.328;2022-07-21T13:52:39;21.90;99.90
2327;DHT22;1174;51.588;7.328;2022-07-21T13:55:08;22.00;99.90
2327;DHT22;1174;51.588;7.328;2022-07-21T13:57:35;22.10;99.90
2327;DHT22;1174;51.588;7.328;2022-07-21T14:00:03;22.20;99.90
2327;DHT22;1174;51.588;7.328;2022-07-21T14:02:31;22.10;99.90
2327;DHT22;1174;51.588;7.328;2022-07-21T14:04:58;22.10;99.90
2327;DHT22;1174;51.588;7.328;2022-07-21T14:07:25;22.00;99.90
2327;DHT22;1174;51.588;7.328;2022-07-21T14:09:53;21.70;99.90
2327;DHT22;1174;51.588;7.328;2022-07-21T14:12:20;21.60;99.90
2327;DHT22;1174;51.588;7.328;2022-07-21T14:14:47;21.50;99.90
2327;DHT22;1174;51.588;7.328;2022-07-21T14:17:15;21.30;99.90
2327;DHT22;1174;51.588;7.328;2022-07-21T14:19:42;21.20;99.90
2327;DHT22;1174;51.588;7.328;2022-07-21T14:22:10;21.00;99.90
2327;DHT22;1174;51.588;7.328;2022-07-21T14:24:37;21.00;99.90
2327;DHT22;1174;51.588;7.328;2022-07-21T14:27:23;20.90;99.90
2327;DHT22;1174;51.588;7.328;2022-07-21T14:29:50;21.00;99.90
2327;DHT22;1174;51.588;7.328;2022-07-21T14:32:18;21.00;99.90
2327;DHT22;1174;51.588;7.328;2022-07-21T14:34:47;21.30;99.90
2327;DHT22;1174;51.588;7.328;2022-07-21T14:37:14;21.50;99.90
2327;DHT22;1174;51.588;7.328;2022-07-21T14:39:41;21.80;99.90
2327;DHT22;1174;51.588;7.328;2022-07-21T14:42:08;22.00;99.90
2327;DHT22;1174;51.588;7.328;2022-07-21T14:44:36;22.10;99.90
2327;DHT22;1174;51.588;7.328;2022-07-21T14:47:05;22.00;99.90
2327;DHT22;1174;51.588;7.328;2022-07-21T14:49:32;22.00;99.90
2327;DHT22;1174;51.588;7.328;2022-07-21T14:51:59;22.10;99.90
2327;DHT22;1174;51.588;7.328;2022-07-21T14:54:26;21.90;99.90
2327;DHT22;1174;51.588;7.328;2022-07-21T14:56:53;21.90;99.90
2327;DHT22;1174;51.588;7.328;2022-07-21T14:59:19;21.90;99.90
2327;DHT22;1174;51.588;7.328;2022-07-21T15:01:48;21.60;99.90
2327;DHT22;1174;51.588;7.328;2022-07-21T15:04:14;21.50;99.90
2327;DHT22;1174;51.588;7.328;2022-07-21T15:06:42;21.30;99.90
2327;DHT22;1174;51.588;7.328;2022-07-21T15:09:09;21.30;99.90
2327;DHT22;1174;51.588;7.328;2022-07-21T15:11:35;21.30;99.90
2327;DHT22;1174;51.588;7.328;2022-07-21T15:14:02;21.50;99.90
2327;DHT22;1174;51.588;7.328;2022-07-21T15:16:29;21.60;99.90
2327;DHT22;1174;51.588;7.328;2022-07-21T15:18:57;21.50;99.90
2327;DHT22;1174;51.588;7.328;2022-07-21T15:21:24;21.20;99.90
2327;DHT22;1174;51.588;7.328;2022-07-21T15:23:51;21.30;99.90
2327;DHT22;1174;51.588;7.328;2022-07-21T15:26:18;21.30;99.90
2327;DHT22;1174;51.588;7.328;2022-07-21T15:28:45;21.40;99.90
2327;DHT22;1174;51.588;7.328;2022-07-21T15:31:12;21.30;99.90
2327;DHT22;1174;51.588;7.328;2022-07-21T15:33:39;21.40;99.90
2327;DHT22;1174;51.588;7.328;2022-07-21T15:36:08;21.30;99.90
2327;DHT22;1174;51.588;7.328;2022-07-21T15:38:34;21.20;99.90
2327;DHT22;1174;51.588;7.328;2022-07-21T15:41:02;21.10;99.90
2327;DHT22;1174;51.588;7.328;2022-07-21T15:43:29;21.10;99.90
2327;DHT22;1174;51.588;7.328;2022-07-21T15:45:56;20.80;99.90
2327;DHT22;1174;51.588;7.328;2022-07-21T15:48:23;20.90;99.90
2327;DHT22;1174;51.588;7.328;2022-07-21T15:50:50;21.00;99.90
2327;DHT22;1174;51.588;7.328;2022-07-21T15:53:21;21.10;99.90
2327;DHT22;1174;51.588;7.328;2022-07-21T15:55:48;21.20;99.90
2327;DHT22;1174;51.588;7.328;2022-07-21T15:58:15;21.10;99.90
2327;DHT22;1174;51.588;7.328;2022-07-21T16:00:42;21.20;99.90
2327;DHT22;1174;51.588;7.328;2022-07-21T16:03:08;21.20;99.90
2327;DHT22;1174;51.588;7.328;2022-07-21T16:05:35;21.30;99.90
2327;DHT22;1174;51.588;7.328;2022-07-21T16:10:29;21.10;99.90
2327;DHT22;1174;51.588;7.328;2022-07-21T16:12:57;21.10;99.90
2327;DHT22;1174;51.588;7.328;2022-07-21T16:15:25;21.00;99.90
2327;DHT22;1174;51.588;7.328;2022-07-21T16:17:52;21.00;99.90